Petersburg, OH (44454)

2:42 AM EDT on May 28, 2015 (GMT -0400)
Poland Twp South | | Change Station
CLOSE
Current Station
Personal Weather Station
Location: Poland, OH
Elevation: 1114 ft
Nearby Weather Stations

Elev 1114 ft 41.00 °N, 80.60 °W | Updated 2 seconds ago

Mostly Cloudy
Mostly Cloudy
64.3 °F
Feels Like 64.3 °F
N
0.2
Wind Variable Wind from WSW
Gusts 0.4 mph

Today
High -- | Low -- °F
--% Chance of Precip.
Yesterday
High -- | Low -- °F
Precip. -- in
5:54 AM 8:44 PM
Waxing Gibbous, 73% visible
Pressure 30.19 in
Visibility -9999.0 miles
Clouds Mostly Cloudy 3000 ft
Mostly Cloudy 4000 ft
Dew Point 58 °F
Humidity 79%
Rainfall 0.15 in
Snow Depth Not available.
UV 0 out of 12
Pollen 8.80 out of 12
Air Quality Not available.
Flu Activity Local Activity
METAR KUCP 280556Z AUTO 00000KT BKN030 BKN040 17/17 A3016 RMK AO2 55001 60054 T01720172 10261 20166 LTG DSNT W TSB00E24RAB0458E33 P0015 SLP223 $

More Conditions Fewer Conditions

Pressure 30.19 in
Visibility -9999.0 miles
Clouds Mostly Cloudy 3000 ft
Mostly Cloudy 4000 ft
Dew Point 58 °F
Humidity 79%
Rainfall 0.15 in
Snow Depth Not available.
UV 0 out of 12
Pollen 8.80 out of 12
Air Quality Not available.
Flu Activity Local Activity
METAR KUCP 280556Z AUTO 00000KT BKN030 BKN040 17/17 A3016 RMK AO2 55001 60054 T01720172 10261 20166 LTG DSNT W TSB00E24RAB0458E33 P0015 SLP223 $

More Conditions Fewer Conditions

10-Day Weather Forecast

Almanac

Astronomy

May. 28, 2015 Rise Set
Actual Time
Civil Twilight
Nautical Twilight
Astronomical Twilight
Moon
Length of Visible Light
Length of Day
Tomorrow will be .
, % of the Moon is Illuminated

Today's Extremes

State Highs State Lows

Community

WunderPhotos

Upload Photos

1,824,931 photos uploaded!

WunderBlogs® & News

Nearby

Air Quality

  Air Quality AQ Index Pollutant
Not available.

Snow Depth

Station Depth Elevation

Earthquake Activity

City Distance Mag. Time & Date
Minimum magnitude displayed is 2.5.

Coastal Water Temperatures

Place Temperature

Stations

Nearby Weather Stations

Station Location Temp. Windchill Dew Point Humidity Wind Precip. Elev Updated Type